LELC

San Javier Airport

San Javier, Spain
TAF AMD LELC 200601Z 2006/2106 25005KT 9999 FEW040 TX15/2013Z TN07/2006Z PROB40 TEMPO 2006/2012 4000 RA BKN014 BECMG 2006/2008 32010KT PROB40 TEMPO 2009/2018 32015G25KT
Issued Valid From Valid To
Jan-20 @ 06:01 UTC
(6 hours ago)
Jan-20 @ 06:00 UTC
(6 hours ago)
Jan-21 @ 06:00 UTC
(in 18 hours)
Jan-20 @ 06:00 to Jan-21 @ 06:00
TAF AMD LELC 200601Z 2006/2106 25005KT 9999 FEW040 TX15/2013Z TN07/2006Z
Wind Visibility Clouds
250° at 5 knots 10,000+ meters
  • Few at 4,000' AGL
Temporary  (Probability 40%) Jan-20 @ 06:00 to Jan-20 @ 12:00
PROB40 TEMPO 2006/2012 4000 RA BKN014
Visibility Clouds Conditions
4,007 meters
  • Broken at 1,400' AGL
  • Rain
Becoming Jan-20 @ 06:00 to Jan-21 @ 06:00
BECMG 2006/2008 32010KT
Wind Visibility Clouds
320° at 10 knots 10,000+ meters
  • Few at 4,000' AGL
Temporary  (Probability 40%) Jan-20 @ 09:00 to Jan-20 @ 18:00
PROB40 TEMPO 2009/2018 32015G25KT
Wind
320° at 15 knots
 Gusting to 25 knots
TAF AMD LELC 200601Z 2006/2106 25005KT 9999 FEW040 TX15/2013Z TN07/2006Z PROB40 TEMPO 2006/2012 4000 RA BKN014 BECMG 2006/2008 32010KT PROB40 TEMPO 2009/2018 32015G25KT
Issued Jan-20 @ 06:01 UTC
(6 hours ago)
Valid From Jan-20 @ 06:00 UTC
(6 hours ago)
Valid To Jan-21 @ 06:00 UTC
(in 18 hours)
Jan-20 @ 06:00 - Jan-21 @ 06:00
Wind Visibility
250° at 5 knots 10,000+ meters
Clouds
  • Few at 4,000' AGL
Probability 40% Temporary Jan-20 @ 06:00 - Jan-20 @ 12:00
Clouds
  • Broken at 1,400' AGL
Conditions
  • Rain
Becoming Jan-20 @ 06:00 - Jan-21 @ 06:00
Wind Visibility
320° at 10 knots 10,000+ meters
Clouds
  • Few at 4,000' AGL
Probability 40% Temporary Jan-20 @ 09:00 - Jan-20 @ 18:00
Wind
320° at 15 knots
 Gusting to 25 knots